Hickman, California
Current Conditions -  °F | °C
As of 12:53 AM on Wednesday 26 Nov 2014 (Local Time) from KMOD Reporting Station
Haze Haze  
Wind Chill: 44°   Ceiling: Unl
Heat Index: 44°   Visibility: 2.5mi
Dew Point: 41°   Wind: 3mph
Humidity: 89%   Direction: 110°ESE
Pressure: 30.34"   Gusts: NA
Location:  37.62°N, 120.75°W
Report Text: KMOD 260853Z AUTO 11003KT 2 1/2SM BR CLR 07/05 A3034 RMK AO2 SLP274 T00670050 58012
Loading
Personal Weather Stations






























Interactive Weather Map New forecast layout! Learn more

10-Day Weather Forecast

Advertisements
Track Severe Weather on mobile